Time;durP1;ratioP1;P1;durP2;ratioP2;P2;SDS_P1;SDS_P2;PMS_P1;PMS_P2;Temp;Humidity;BMP_temperature;BMP_pressure;BME280_temperature;BME280_humidity;BME280_pressure;Samples;Min_cycle;Max_cycle;Signal;HPM_P1;HPM_P2
2022/10/12 00:01:54;;;;;;;10.55;3.45;;;7.20;99.90;;;;;;5138823;27;20092;-81
2022/10/12 00:04:20;;;;;;;8.70;3.38;;;7.20;99.90;;;;;;5135709;27;20073;-81
2022/10/12 00:06:46;;;;;;;7.60;3.53;;;7.20;99.90;;;;;;5154647;27;20046;-81
2022/10/12 00:09:12;;;;;;;9.95;3.75;;;7.10;99.90;;;;;;5118489;27;20491;-82
2022/10/12 00:11:39;;;;;;;8.32;3.22;;;7.10;99.90;;;;;;5154320;27;20093;-82
2022/10/12 00:14:06;;;;;;;17.38;4.50;;;7.10;99.90;;;;;;5141595;27;20567;-81
2022/10/12 00:16:33;;;;;;;9.68;3.10;;;7.10;99.90;;;;;;5154954;27;20054;-82
2022/10/12 00:19:00;;;;;;;10.13;3.67;;;7.10;99.90;;;;;;5154406;27;20452;-81
2022/10/12 00:21:29;;;;;;;9.68;4.10;;;7.10;99.90;;;;;;5154307;27;20079;-81
2022/10/12 00:23:57;;;;;;;8.20;3.65;;;7.10;99.90;;;;;;5153885;27;20528;-81
2022/10/12 00:26:24;;;;;;;8.32;3.20;;;7.10;99.90;;;;;;5153812;27;20057;-81
2022/10/12 00:28:59;;;;;;;9.65;3.65;;;7.10;99.90;;;;;;5158226;27;20065;-82
2022/10/12 00:31:26;;;;;;;;;;;7.10;99.90;;;;;;5136246;27;20046;-80
2022/10/12 00:33:52;;;;;;;13.40;4.00;;;7.10;99.90;;;;;;5135114;27;20021;-81
2022/10/12 00:36:27;;;;;;;12.85;4.05;;;7.00;99.90;;;;;;5135366;27;20085;-80
2022/10/12 00:38:55;;;;;;;7.15;3.83;;;7.00;99.90;;;;;;5152093;27;20468;-81
2022/10/12 00:41:26;;;;;;;8.25;2.90;;;7.00;99.90;;;;;;5134526;27;20095;-81
2022/10/12 00:43:52;;;;;;;14.23;4.60;;;7.00;99.90;;;;;;5134991;27;20087;-81
2022/10/12 00:46:21;;;;;;;8.90;3.30;;;7.00;99.90;;;;;;5160268;27;20043;-81
2022/10/12 00:49:02;;;;;;;9.70;3.67;;;7.00;99.90;;;;;;5153779;27;20371;-82
2022/10/12 00:51:28;;;;;;;12.13;3.67;;;7.00;99.90;;;;;;5153370;27;20075;-82
2022/10/12 00:54:03;;;;;;;13.20;4.05;;;7.00;99.90;;;;;;5134438;27;20054;-81
2022/10/12 00:56:33;;;;;;;10.55;3.90;;;7.00;99.90;;;;;;5153349;27;20055;-82
2022/10/12 00:59:03;;;;;;;10.02;4.30;;;7.00;99.90;;;;;;5134845;27;20084;-80
2022/10/12 01:01:33;;;;;;;11.75;3.92;;;7.00;99.90;;;;;;5154525;27;20039;-80
2022/10/12 01:03:59;;;;;;;11.35;4.55;;;7.00;99.90;;;;;;5158117;27;20054;-81
2022/10/12 01:06:25;;;;;;;11.63;3.78;;;7.00;99.90;;;;;;5117599;27;20186;-81
2022/10/12 01:08:54;;;;;;;11.82;4.35;;;7.00;99.90;;;;;;5151821;27;20133;-82
2022/10/12 01:11:20;;;;;;;10.65;3.70;;;7.00;99.90;;;;;;5134175;27;20062;-82
2022/10/12 01:13:46;;;;;;;8.77;3.42;;;7.00;99.90;;;;;;5134636;27;20058;-82
2022/10/12 01:16:26;;;;;;;9.38;4.63;;;7.00;99.90;;;;;;5152869;27;20482;-82
2022/10/12 01:19:04;;;;;;;9.50;3.20;;;7.00;99.90;;;;;;5142091;27;20107;-80
2022/10/12 01:21:36;;;;;;;8.07;3.15;;;7.10;99.90;;;;;;5134371;27;20521;-80
2022/10/12 01:24:29;;;;;;;7.10;2.67;;;7.10;99.90;;;;;;5153257;27;20058;-81
2022/10/12 01:26:55;;;;;;;10.45;4.18;;;7.10;99.90;;;;;;5153011;27;20095;-80
2022/10/12 01:29:56;;;;;;;7.43;2.80;;;7.10;99.90;;;;;;5134374;27;20436;-80
2022/10/12 01:32:35;;;;;;;11.52;4.57;;;7.10;99.90;;;;;;5160638;27;20394;-82
2022/10/12 01:35:14;;;;;;;9.32;4.07;;;7.20;99.90;;;;;;5134655;27;20462;-82
2022/10/12 01:37:59;;;;;;;9.65;4.88;;;7.20;99.90;;;;;;5134455;27;20058;-80
2022/10/12 01:40:38;;;;;;;8.48;4.50;;;7.30;99.90;;;;;;5116965;27;20058;-80
2022/10/12 01:43:05;;;;;;;9.57;4.40;;;7.30;99.90;;;;;;5133809;27;20058;-81
2022/10/12 01:45:31;;;;;;;12.43;4.90;;;7.30;99.90;;;;;;5135034;27;20074;-81
2022/10/12 01:47:57;;;;;;;13.63;5.05;;;7.30;99.90;;;;;;5156534;27;20043;-81
2022/10/12 01:50:34;;;;;;;14.75;6.55;;;7.40;99.90;;;;;;5134095;27;20043;-81
2022/10/12 01:53:25;;;;;;;12.57;6.18;;;7.40;99.90;;;;;;5152388;27;20058;-81
2022/10/12 01:56:05;;;;;;;12.20;7.53;;;7.40;99.90;;;;;;5133582;27;20061;-81
2022/10/12 01:58:45;;;;;;;18.17;7.18;;;7.40;99.90;;;;;;5152700;27;20039;-81
2022/10/12 02:01:40;;;;;;;18.08;8.18;;;7.40;99.90;;;;;;5159056;27;20055;-81
2022/10/12 02:04:19;;;;;;;11.77;5.70;;;7.40;99.90;;;;;;5153835;27;20047;-80
2022/10/12 02:06:54;;;;;;;10.32;6.35;;;7.40;99.90;;;;;;5133904;27;20046;-82
2022/10/12 02:09:26;;;;;;;15.20;7.63;;;7.40;99.90;;;;;;5152591;27;20054;-81
2022/10/12 02:11:56;;;;;;;17.90;8.65;;;7.40;99.90;;;;;;5152629;27;20386;-82
2022/10/12 02:14:39;;;;;;;17.10;7.40;;;7.40;99.90;;;;;;5153048;27;20153;-82
2022/10/12 02:17:10;;;;;;;17.00;7.60;;;7.40;99.90;;;;;;5163932;27;20084;-81
2022/10/12 02:19:40;;;;;;;12.23;6.55;;;7.40;99.90;;;;;;5134268;27;20096;-81
2022/10/12 02:22:08;;;;;;;14.35;6.63;;;7.40;99.90;;;;;;5152142;27;20055;-81
2022/10/12 02:24:37;;;;;;;12.50;7.07;;;7.40;99.90;;;;;;5133937;27;20055;-82
2022/10/12 02:27:06;;;;;;;14.13;7.25;;;7.40;99.90;;;;;;5133950;27;20414;-82
2022/10/12 02:29:44;;;;;;;11.15;6.25;;;7.40;99.90;;;;;;5133984;27;20046;-82
2022/10/12 02:32:32;;;;;;;13.88;6.00;;;7.40;99.90;;;;;;5146866;27;20111;-79
2022/10/12 02:35:10;;;;;;;14.45;7.22;;;7.40;99.90;;;;;;5134213;27;20439;-80
2022/10/12 02:37:51;;;;;;;12.63;6.28;;;7.40;99.90;;;;;;5152398;27;20512;-78
2022/10/12 02:40:29;;;;;;;16.23;6.60;;;7.40;99.90;;;;;;5136075;27;20051;-79
2022/10/12 02:43:01;;;;;;;10.45;5.78;;;7.40;99.90;;;;;;5155830;27;20061;-79
2022/10/12 02:45:29;;;;;;;13.43;5.40;;;7.40;99.90;;;;;;5159092;27;20051;-80
2022/10/12 02:47:56;;;;;;;14.60;5.32;;;7.40;99.90;;;;;;5159149;27;20038;-80
2022/10/12 02:50:24;;;;;;;18.52;6.72;;;7.40;99.90;;;;;;5135368;27;20051;-80
2022/10/12 02:52:51;;;;;;;19.52;7.28;;;7.40;99.90;;;;;;5134174;27;20537;-80
2022/10/12 02:55:18;;;;;;;15.60;5.20;;;7.40;99.90;;;;;;5133272;27;20054;-80
2022/10/12 02:57:44;;;;;;;9.80;4.78;;;7.40;99.90;;;;;;5133868;27;20086;-80
2022/10/12 03:00:10;;;;;;;14.32;4.78;;;7.40;99.90;;;;;;5122882;27;20057;-80
2022/10/12 03:02:36;;;;;;;13.85;5.20;;;7.40;99.90;;;;;;5152239;27;20090;-80
2022/10/12 03:05:02;;;;;;;16.73;7.63;;;7.40;99.90;;;;;;5152103;27;20406;-80
2022/10/12 03:07:28;;;;;;;11.00;5.18;;;7.30;99.90;;;;;;5152775;27;20065;-80
2022/10/12 03:09:54;;;;;;;13.32;6.50;;;7.40;99.90;;;;;;5154069;27;20046;-79
2022/10/12 03:12:19;;;;;;;8.88;4.78;;;7.30;99.90;;;;;;5146106;27;20058;-80
2022/10/12 03:14:45;;;;;;;13.48;4.13;;;7.40;99.90;;;;;;5140042;27;20051;-80
2022/10/12 03:17:11;;;;;;;12.05;5.68;;;7.30;99.90;;;;;;5155363;27;20051;-80
2022/10/12 03:19:38;;;;;;;9.07;4.20;;;7.30;99.90;;;;;;5136725;27;20051;-80
2022/10/12 03:22:04;;;;;;;9.27;4.32;;;7.30;99.90;;;;;;5155456;27;20112;-80
2022/10/12 03:24:30;;;;;;;9.07;4.00;;;7.30;99.90;;;;;;5136312;27;20517;-80
2022/10/12 03:26:57;;;;;;;12.27;4.07;;;7.30;99.90;;;;;;5139828;27;20061;-80
2022/10/12 03:29:23;;;;;;;11.48;3.67;;;7.30;99.90;;;;;;5161522;27;20035;-80
2022/10/12 03:31:48;;;;;;;11.40;4.10;;;7.30;99.90;;;;;;5119255;27;20062;-80
2022/10/12 03:34:14;;;;;;;10.55;5.50;;;7.30;99.90;;;;;;5155194;27;20086;-80
2022/10/12 03:36:40;;;;;;;10.75;5.47;;;7.40;99.90;;;;;;5136612;27;20517;-80
2022/10/12 03:39:06;;;;;;;10.82;5.70;;;7.30;99.90;;;;;;5154411;27;20391;-80
2022/10/12 03:41:32;;;;;;;11.45;4.85;;;7.30;99.90;;;;;;5136218;27;20058;-80
2022/10/12 03:43:58;;;;;;;11.68;4.70;;;7.30;99.90;;;;;;5143280;27;20043;-80
2022/10/12 03:46:24;;;;;;;10.25;5.03;;;7.30;99.90;;;;;;5136145;27;20056;-80
2022/10/12 03:48:50;;;;;;;11.88;4.85;;;7.30;99.90;;;;;;5154788;27;20054;-80
2022/10/12 03:51:16;;;;;;;12.77;4.20;;;7.30;99.90;;;;;;5154520;27;20171;-81
2022/10/12 03:53:42;;;;;;;20.10;6.60;;;7.30;99.90;;;;;;5101998;27;20125;-80
2022/10/12 03:56:08;;;;;;;11.80;4.10;;;7.30;99.90;;;;;;5154835;27;20054;-81
2022/10/12 03:58:33;;;;;;;12.30;4.15;;;7.30;99.90;;;;;;5123981;27;20062;-80
2022/10/12 04:00:59;;;;;;;12.07;4.70;;;7.20;99.90;;;;;;5155507;27;20527;-80
2022/10/12 04:03:25;;;;;;;12.13;4.15;;;7.20;99.90;;;;;;5135597;27;20057;-81
2022/10/12 04:05:55;;;;;;;9.95;4.63;;;7.20;99.90;;;;;;5136176;27;20047;-80
2022/10/12 04:08:22;;;;;;;10.07;4.00;;;7.20;99.90;;;;;;5135474;27;20093;-80
2022/10/12 04:10:49;;;;;;;12.77;4.00;;;7.20;99.90;;;;;;5135768;27;20043;-81
2022/10/12 04:13:19;;;;;;;10.32;3.53;;;7.10;99.90;;;;;;5154348;27;20069;-80
2022/10/12 04:15:45;;;;;;;12.48;4.75;;;7.10;99.90;;;;;;5160592;27;20042;-81
2022/10/12 04:18:11;;;;;;;9.98;3.35;;;7.10;99.90;;;;;;5135522;27;20473;-79
2022/10/12 04:20:37;;;;;;;8.82;4.15;;;7.10;99.90;;;;;;5118897;27;20046;-81
2022/10/12 04:23:03;;;;;;;17.38;5.57;;;7.00;99.90;;;;;;5154523;27;20378;-80
2022/10/12 04:25:29;;;;;;;8.38;3.15;;;7.00;99.90;;;;;;5154922;27;20043;-81
2022/10/12 04:27:55;;;;;;;14.60;5.00;;;7.00;99.90;;;;;;5136983;27;20216;-80
2022/10/12 04:30:21;;;;;;;10.75;3.17;;;7.00;99.90;;;;;;5155847;27;20042;-81
2022/10/12 04:32:47;;;;;;;14.57;3.33;;;7.00;99.90;;;;;;5135369;27;20047;-81
2022/10/12 04:35:13;;;;;;;8.23;3.92;;;7.00;99.90;;;;;;5135204;27;20046;-80
2022/10/12 04:37:38;;;;;;;12.15;4.57;;;7.00;99.90;;;;;;5135025;27;20051;-81
2022/10/12 04:40:05;;;;;;;10.93;3.90;;;6.90;99.90;;;;;;5135454;27;20050;-80
2022/10/12 04:42:31;;;;;;;10.18;3.47;;;6.90;99.90;;;;;;5137137;27;20566;-80
2022/10/12 04:44:57;;;;;;;11.90;3.28;;;6.90;99.90;;;;;;5135268;27;20042;-81
2022/10/12 04:47:23;;;;;;;13.50;4.88;;;6.90;99.90;;;;;;5135155;27;20047;-80
2022/10/12 04:49:49;;;;;;;13.30;4.70;;;6.80;99.90;;;;;;5153756;27;20046;-81
2022/10/12 04:52:14;;;;;;;10.20;3.40;;;6.80;99.90;;;;;;5153477;27;20046;-81
2022/10/12 04:54:40;;;;;;;11.98;3.75;;;6.80;99.90;;;;;;5153675;27;20058;-81
2022/10/12 04:57:06;;;;;;;14.73;4.53;;;6.80;99.90;;;;;;5153310;27;20049;-81
2022/10/12 04:59:32;;;;;;;12.18;4.40;;;6.80;99.90;;;;;;5135877;27;20077;-80
2022/10/12 05:01:58;;;;;;;11.75;3.63;;;6.80;99.90;;;;;;5117713;27;20050;-80
2022/10/12 05:04:24;;;;;;;15.05;4.57;;;6.70;99.90;;;;;;5153224;27;20082;-79
2022/10/12 05:06:50;;;;;;;12.73;4.13;;;6.70;99.90;;;;;;5134699;27;20058;-80
2022/10/12 05:09:16;;;;;;;11.65;3.92;;;6.70;99.90;;;;;;5153203;27;20046;-80
2022/10/12 05:11:42;;;;;;;10.70;4.30;;;6.60;99.90;;;;;;5153388;27;20078;-81
2022/10/12 05:14:08;;;;;;;9.35;3.42;;;6.60;99.90;;;;;;5162158;27;20107;-80
2022/10/12 05:16:34;;;;;;;12.85;4.05;;;6.60;99.90;;;;;;5134845;27;20039;-80
2022/10/12 05:19:00;;;;;;;11.60;4.60;;;6.60;99.90;;;;;;5117158;27;20058;-79
2022/10/12 05:21:26;;;;;;;9.77;4.10;;;6.60;99.90;;;;;;5153008;27;20091;-81
2022/10/12 05:23:52;;;;;;;10.52;3.00;;;6.60;99.90;;;;;;5153219;27;20046;-82
2022/10/12 05:26:18;;;;;;;10.57;4.13;;;6.60;99.90;;;;;;5151988;27;20055;-81
2022/10/12 05:28:44;;;;;;;9.77;3.95;;;6.60;99.90;;;;;;5160110;27;20069;-81
2022/10/12 05:31:10;;;;;;;12.77;3.58;;;6.50;99.90;;;;;;5133669;27;20521;-80
2022/10/12 05:33:36;;;;;;;9.32;3.22;;;6.50;99.90;;;;;;5134587;27;20043;-78
2022/10/12 05:36:02;;;;;;;9.30;4.50;;;6.50;99.90;;;;;;5133941;27;20516;-79
2022/10/12 05:38:28;;;;;;;10.07;3.85;;;6.50;99.90;;;;;;5130362;27;20055;-80
2022/10/12 05:40:54;;;;;;;21.20;5.60;;;6.50;99.90;;;;;;5132035;27;20073;-81
2022/10/12 05:43:23;;;;;;;12.43;4.70;;;6.50;99.90;;;;;;5137624;27;20091;-82
2022/10/12 05:45:48;;;;;;;11.88;4.15;;;6.50;99.90;;;;;;5132208;27;20043;-79
2022/10/12 05:48:14;;;;;;;14.15;4.10;;;6.50;99.90;;;;;;5132039;27;20502;-80
2022/10/12 05:50:40;;;;;;;11.13;3.97;;;6.50;99.90;;;;;;5132424;27;20227;-80
2022/10/12 05:53:06;;;;;;;11.48;3.67;;;6.40;99.90;;;;;;5113456;28;20066;-80
2022/10/12 05:55:32;;;;;;;14.63;3.70;;;6.40;99.90;;;;;;5132316;27;20047;-80
2022/10/12 05:57:58;;;;;;;8.75;3.50;;;6.40;99.90;;;;;;5140385;28;20111;-80
2022/10/12 06:00:24;;;;;;;10.55;3.90;;;6.40;99.90;;;;;;5130757;28;20055;-79
2022/10/12 06:02:50;;;;;;;9.98;2.92;;;6.40;99.90;;;;;;5131991;27;20047;-79
2022/10/12 06:05:16;;;;;;;8.90;3.65;;;6.40;99.90;;;;;;5130591;28;20398;-79
2022/10/12 06:07:43;;;;;;;15.18;5.53;;;6.40;99.90;;;;;;5129946;28;20523;-79
2022/10/12 06:10:09;;;;;;;12.02;3.72;;;6.40;99.90;;;;;;5131588;28;20051;-80
2022/10/12 06:12:35;;;;;;;9.95;4.18;;;6.40;99.90;;;;;;5132260;28;20047;-79
2022/10/12 06:15:01;;;;;;;11.38;4.70;;;6.40;99.90;;;;;;5131441;27;20460;-80
2022/10/12 06:17:27;;;;;;;12.63;3.40;;;6.40;99.90;;;;;;5112959;28;20058;-80
2022/10/12 06:19:52;;;;;;;10.15;4.05;;;6.40;99.90;;;;;;5131880;27;20043;-81
2022/10/12 06:22:18;;;;;;;7.97;3.72;;;6.40;99.90;;;;;;5131497;28;20051;-81
2022/10/12 06:24:44;;;;;;;11.73;3.90;;;6.50;99.90;;;;;;5138895;27;20047;-81
2022/10/12 06:27:10;;;;;;;15.55;5.07;;;6.50;99.90;;;;;;5131877;28;20051;-81
2022/10/12 06:29:37;;;;;;;12.00;3.92;;;6.60;99.90;;;;;;5130409;28;20529;-81
2022/10/12 06:32:03;;;;;;;13.48;4.55;;;6.60;99.90;;;;;;5130190;28;20134;-81
2022/10/12 06:34:29;;;;;;;10.73;4.97;;;6.60;99.90;;;;;;5131413;28;20487;-81
2022/10/12 06:36:55;;;;;;;15.00;5.85;;;6.70;99.90;;;;;;5131820;28;20125;-81
2022/10/12 06:39:24;;;;;;;13.80;5.72;;;6.70;99.90;;;;;;5157709;27;20107;-80
2022/10/12 06:41:51;;;;;;;14.65;5.35;;;6.80;99.90;;;;;;5140883;27;20051;-81
2022/10/12 06:44:17;;;;;;;17.05;6.10;;;6.80;99.90;;;;;;5156668;27;20053;-81
2022/10/12 06:46:42;;;;;;;19.00;5.72;;;6.90;99.90;;;;;;5156512;27;20047;-81
2022/10/12 06:49:09;;;;;;;21.23;5.57;;;6.90;99.90;;;;;;5137096;27;20058;-81
2022/10/12 06:51:35;;;;;;;17.30;5.32;;;7.00;99.90;;;;;;5137369;27;20055;-81
2022/10/12 06:54:01;;;;;;;13.55;4.32;;;7.00;99.90;;;;;;5138584;27;20047;-81
2022/10/12 06:56:27;;;;;;;11.32;4.03;;;7.00;99.90;;;;;;5144628;27;20103;-81
2022/10/12 06:58:54;;;;;;;9.63;4.57;;;7.10;99.90;;;;;;5137634;27;20077;-81
2022/10/12 07:01:20;;;;;;;16.10;4.00;;;7.10;99.90;;;;;;5156190;27;20129;-81
2022/10/12 07:03:46;;;;;;;14.88;5.65;;;7.10;99.90;;;;;;5156303;27;20054;-81
2022/10/12 07:06:13;;;;;;;22.10;5.28;;;7.20;99.90;;;;;;5137403;27;20055;-81
2022/10/12 07:08:40;;;;;;;16.95;5.40;;;7.30;99.90;;;;;;5156738;27;20482;-81
2022/10/12 07:11:09;;;;;;;15.05;6.15;;;7.40;99.90;;;;;;5156987;27;20057;-81
2022/10/12 07:13:35;;;;;;;18.08;6.68;;;7.50;99.90;;;;;;5159718;27;20075;-80
2022/10/12 07:16:01;;;;;;;17.17;5.43;;;7.50;99.90;;;;;;5147903;27;20054;-80
2022/10/12 07:18:27;;;;;;;15.43;5.30;;;7.60;99.90;;;;;;5137433;27;20062;-81
2022/10/12 07:20:58;;;;;;;15.15;5.95;;;7.70;99.90;;;;;;5154718;27;20057;-81
2022/10/12 07:23:25;;;;;;;15.02;5.45;;;7.80;99.90;;;;;;5155956;27;20049;-81
2022/10/12 07:25:52;;;;;;;15.55;6.22;;;7.80;99.90;;;;;;5155763;27;20076;-81
2022/10/12 07:28:19;;;;;;;16.35;6.30;;;8.00;99.90;;;;;;5120008;27;20506;-81
2022/10/12 07:30:46;;;;;;;20.10;7.05;;;8.00;99.90;;;;;;5160909;27;20100;-81
2022/10/12 07:33:12;;;;;;;18.20;5.43;;;8.10;99.90;;;;;;5136366;27;20524;-80
2022/10/12 07:35:38;;;;;;;13.68;5.45;;;8.20;99.90;;;;;;5155265;27;20082;-81
2022/10/12 07:38:04;;;;;;;13.15;5.70;;;8.20;99.90;;;;;;5136002;27;20502;-81
2022/10/12 07:40:31;;;;;;;14.85;5.95;;;8.30;99.90;;;;;;5119425;27;20091;-81
2022/10/12 07:42:57;;;;;;;15.05;5.57;;;8.30;99.90;;;;;;5158593;27;20043;-81
2022/10/12 07:45:24;;;;;;;19.58;5.53;;;8.40;99.90;;;;;;5155051;27;20051;-80
2022/10/12 07:47:50;;;;;;;15.02;6.07;;;8.50;99.90;;;;;;5136340;27;20050;-81
2022/10/12 07:50:16;;;;;;;18.48;5.88;;;8.60;99.90;;;;;;5136217;27;20497;-81
2022/10/12 07:52:44;;;;;;;19.13;5.93;;;8.70;99.90;;;;;;5118933;27;20059;-81
2022/10/12 07:55:10;;;;;;;20.25;6.03;;;8.90;99.90;;;;;;5136114;27;20051;-80
2022/10/12 07:57:37;;;;;;;15.60;6.10;;;9.00;99.90;;;;;;5160081;27;20046;-81
2022/10/12 08:00:04;;;;;;;17.85;6.68;;;9.20;99.90;;;;;;5136150;27;20129;-81
2022/10/12 08:02:30;;;;;;;22.75;7.03;;;9.30;99.90;;;;;;5136210;27;20731;-80
2022/10/12 08:04:56;;;;;;;15.18;5.45;;;9.50;99.90;;;;;;5154413;27;20106;-80
2022/10/12 08:07:21;;;;;;;21.80;6.07;;;9.70;99.90;;;;;;5154570;27;20058;-81
2022/10/12 08:09:48;;;;;;;15.80;5.03;;;9.90;99.90;;;;;;5153362;27;20042;-81
2022/10/12 08:12:14;;;;;;;23.02;5.68;;;10.10;99.90;;;;;;5159680;27;20042;-81
2022/10/12 08:14:40;;;;;;;16.67;5.28;;;10.10;99.90;;;;;;5154617;27;20062;-80
2022/10/12 08:17:07;;;;;;;17.55;5.35;;;10.20;99.90;;;;;;5154578;27;20043;-81
2022/10/12 08:19:35;;;;;;;19.48;5.28;;;10.20;99.90;;;;;;5106950;27;20104;-80
2022/10/12 08:22:01;;;;;;;15.88;5.25;;;10.20;99.90;;;;;;5131981;27;20047;-81
2022/10/12 08:24:27;;;;;;;18.23;5.00;;;10.30;99.90;;;;;;5153751;27;20107;-81
2022/10/12 08:26:53;;;;;;;18.13;4.90;;;10.30;99.90;;;;;;5135873;27;20435;-81
2022/10/12 08:29:19;;;;;;;20.10;6.65;;;10.40;99.90;;;;;;5158274;27;20050;-80
2022/10/12 08:31:48;;;;;;;11.02;5.45;;;10.40;99.90;;;;;;5135343;27;20051;-81
2022/10/12 08:34:15;;;;;;;15.00;4.80;;;10.50;99.90;;;;;;5154315;27;20074;-81
2022/10/12 08:36:41;;;;;;;16.10;5.47;;;10.60;99.90;;;;;;5135334;27;20061;-81
2022/10/12 08:39:07;;;;;;;12.02;4.55;;;10.70;99.90;;;;;;5152180;27;20055;-81
2022/10/12 08:42:04;;;;;;;18.48;5.18;;;10.90;99.90;;;;;;5123485;27;20090;-81
2022/10/12 08:44:53;;;;;;;14.93;4.13;;;11.00;99.90;;;;;;5160984;27;20422;-81
2022/10/12 08:47:39;;;;;;;12.35;4.65;;;11.20;99.90;;;;;;5154266;27;20051;-81
2022/10/12 08:50:13;;;;;;;19.75;4.90;;;11.40;99.90;;;;;;5153794;27;20418;-81
2022/10/12 08:52:53;;;;;;;14.10;4.60;;;11.40;99.90;;;;;;5153519;27;20108;-81
2022/10/12 08:55:31;;;;;;;13.43;4.05;;;11.60;99.90;;;;;;5134872;27;20047;-81
2022/10/12 08:57:57;;;;;;;15.13;4.32;;;11.70;99.90;;;;;;5156508;27;20050;-79
2022/10/12 09:00:23;;;;;;;18.98;4.47;;;11.70;99.90;;;;;;5156328;27;20410;-80
2022/10/12 09:03:16;;;;;;;12.98;3.92;;;11.70;99.90;;;;;;5153223;27;20095;-81
2022/10/12 09:05:53;;;;;;;15.35;4.13;;;11.70;99.90;;;;;;5133976;27;20062;-81
2022/10/12 09:08:28;;;;;;;23.65;5.38;;;11.70;99.90;;;;;;5101168;27;20054;-80
2022/10/12 09:11:32;;;;;;;14.50;4.47;;;11.90;99.90;;;;;;5135658;27;20449;-81
2022/10/12 09:14:18;;;;;;;17.08;4.85;;;12.00;99.90;;;;;;5134221;27;20066;-81
2022/10/12 09:16:47;;;;;;;21.33;4.45;;;12.10;99.90;;;;;;5138447;27;20042;-80
2022/10/12 09:19:41;;;;;;;12.43;3.63;;;12.20;99.90;;;;;;5153156;27;20055;-80
2022/10/12 09:22:19;;;;;;;17.95;3.67;;;12.30;99.90;;;;;;5149571;27;20455;-81
2022/10/12 09:24:48;;;;;;;17.20;4.45;;;12.40;99.90;;;;;;5124559;27;20077;-81
2022/10/12 09:27:17;;;;;;;12.20;3.75;;;12.50;99.90;;;;;;5131820;27;20047;-80
2022/10/12 09:29:53;;;;;;;14.38;4.07;;;12.60;99.90;;;;;;5134643;27;20058;-80
2022/10/12 09:32:50;;;;;;;19.50;4.57;;;12.60;99.90;;;;;;5142211;27;20092;-80
2022/10/12 09:35:16;;;;;;;18.55;3.78;;;12.60;99.90;;;;;;5153229;27;20103;-80
2022/10/12 09:37:51;;;;;;;16.95;4.15;;;12.70;99.90;;;;;;5152602;27;20043;-81
2022/10/12 09:40:30;;;;;;;20.48;3.83;;;12.80;99.90;;;;;;5152864;27;20083;-80
2022/10/12 09:42:59;;;;;;;20.13;4.03;;;12.90;99.90;;;;;;5134016;27;20517;-80
2022/10/12 09:45:27;;;;;;;17.75;4.55;;;13.00;99.90;;;;;;5152581;27;20057;-80
2022/10/12 09:48:13;;;;;;;14.10;4.22;;;13.20;99.90;;;;;;5153052;27;20082;-80
2022/10/12 09:50:54;;;;;;;15.00;3.35;;;13.40;99.90;;;;;;5163372;27;20413;-81
2022/10/12 09:53:25;;;;;;;15.32;4.03;;;13.60;99.90;;;;;;5134494;27;20535;-81
2022/10/12 09:55:59;;;;;;;16.45;4.13;;;13.60;99.90;;;;;;5133975;27;20504;-81
2022/10/12 09:58:26;;;;;;;15.82;3.83;;;13.80;99.90;;;;;;5152912;27;20054;-80
2022/10/12 10:01:20;;;;;;;17.10;4.13;;;13.90;99.90;;;;;;5153780;27;20050;-80
2022/10/12 10:04:08;;;;;;;13.98;4.20;;;14.10;99.90;;;;;;5134516;27;20046;-80
2022/10/12 10:06:36;;;;;;;11.75;3.50;;;14.10;99.90;;;;;;5160316;27;20062;-80
2022/10/12 10:09:02;;;;;;;17.00;3.40;;;14.10;99.90;;;;;;5153781;27;20047;-81
2022/10/12 10:11:30;;;;;;;22.13;4.22;;;14.20;99.90;;;;;;5133904;27;20046;-80
2022/10/12 10:13:58;;;;;;;20.20;3.88;;;14.30;99.90;;;;;;5152361;27;20050;-80
2022/10/12 10:16:27;;;;;;;14.57;3.30;;;14.50;99.90;;;;;;5153151;27;20053;-80
2022/10/12 10:18:52;;;;;;;19.08;4.10;;;14.50;99.90;;;;;;5156835;27;20409;-80
2022/10/12 10:21:37;;;;;;;13.77;3.97;;;14.70;99.90;;;;;;5163171;27;20074;-80
2022/10/12 10:24:30;;;;;;;18.43;3.70;;;14.80;99.90;;;;;;5156786;27;20861;-81
2022/10/12 10:26:59;;;;;;;12.65;3.47;;;14.90;99.90;;;;;;5127835;27;20061;-80
2022/10/12 10:29:39;;;;;;;14.18;3.20;;;14.90;99.90;;;;;;5156297;27;20091;-80
2022/10/12 10:32:28;;;;;;;19.33;3.88;;;15.00;99.90;;;;;;5156189;27;20125;-80
2022/10/12 10:35:13;;;;;;;14.85;3.55;;;15.10;99.90;;;;;;5160146;27;20134;-79
2022/10/12 10:37:58;;;;;;;20.13;5.10;;;15.10;99.90;;;;;;5156147;27;20103;-80
2022/10/12 10:40:50;;;;;;;16.08;3.33;;;15.20;99.90;;;;;;5140328;27;20037;-80
2022/10/12 10:43:35;;;;;;;13.20;3.22;;;15.20;99.90;;;;;;5147721;27;20525;-79
2022/10/12 10:46:30;;;;;;;15.32;3.15;;;15.30;99.90;;;;;;5140300;27;20041;-81
2022/10/12 10:49:22;;;;;;;13.80;3.30;;;15.60;99.90;;;;;;5156008;27;20050;-81
2022/10/12 10:51:55;;;;;;;18.92;2.83;;;15.80;99.90;;;;;;5143845;27;20413;-79
2022/10/12 10:54:21;;;;;;;13.95;3.50;;;16.00;99.90;;;;;;5157972;27;20049;-80
2022/10/12 10:56:49;;;;;;;14.65;2.95;;;16.20;99.90;;;;;;5156063;27;20486;-80
2022/10/12 10:59:29;;;;;;;13.77;2.80;;;16.40;99.90;;;;;;5137338;27;20038;-80
2022/10/12 11:02:01;;;;;;;14.07;2.75;;;16.60;99.90;;;;;;5155734;27;20410;-80
2022/10/12 11:04:40;;;;;;;13.10;2.72;;;16.60;99.90;;;;;;5154595;27;20050;-81
2022/10/12 11:07:34;;;;;;;10.00;2.10;;;16.70;99.90;;;;;;5139573;27;20090;-80
2022/10/12 11:10:04;;;;;;;11.07;3.33;;;16.90;99.50;;;;;;5137113;27;20541;-80
2022/10/12 11:12:39;;;;;;;11.85;2.33;;;17.70;98.40;;;;;;5155609;27;20051;-81
2022/10/12 11:18:55;;;;;;;13.77;2.25;;;19.40;96.70;;;;;;5156881;27;20406;-80
2022/10/12 11:21:47;;;;;;;13.02;3.53;;;20.40;95.20;;;;;;5138822;27;20532;-81
2022/10/12 11:24:29;;;;;;;20.23;3.42;;;21.00;93.30;;;;;;5143918;27;20050;-82
2022/10/12 11:27:02;;;;;;;11.38;2.50;;;21.80;92.50;;;;;;5136602;27;20062;-79
2022/10/12 11:29:29;;;;;;;9.63;3.03;;;22.60;91.00;;;;;;5154256;27;20089;-79
2022/10/12 11:32:02;;;;;;;12.18;2.10;;;23.20;90.90;;;;;;5160916;27;20454;-79
2022/10/12 11:34:33;;;;;;;12.15;2.55;;;23.90;88.80;;;;;;5156116;27;20058;-80
2022/10/12 11:37:02;;;;;;;12.55;3.53;;;24.10;83.80;;;;;;5154264;27;20089;-81
2022/10/12 11:39:42;;;;;;;12.30;2.42;;;24.60;81.00;;;;;;5135142;27;20119;-79
2022/10/12 11:42:13;;;;;;;11.10;2.30;;;25.10;80.70;;;;;;5134439;27;20622;-80
2022/10/12 11:44:41;;;;;;;12.10;2.63;;;25.30;77.90;;;;;;5134968;27;20084;-80
2022/10/12 11:47:44;;;;;;;13.88;3.25;;;26.00;76.40;;;;;;5134589;27;20040;-80
2022/10/12 11:50:28;;;;;;;7.85;2.22;;;26.10;69.40;;;;;;5139084;27;20486;-80
2022/10/12 11:52:58;;;;;;;11.90;2.37;;;26.90;68.00;;;;;;5134333;27;20054;-81
2022/10/12 11:55:43;;;;;;;14.20;2.80;;;26.70;66.90;;;;;;5134397;27;20134;-79
2022/10/12 11:58:23;;;;;;;13.38;2.85;;;27.30;64.80;;;;;;5132623;27;20040;-81
2022/10/12 12:01:07;;;;;;;14.18;2.33;;;27.80;63.00;;;;;;5132998;27;20057;-81
2022/10/12 12:03:42;;;;;;;8.47;2.07;;;28.30;61.40;;;;;;5132505;27;20514;-81
2022/10/12 12:06:43;;;;;;;14.82;2.85;;;27.80;57.80;;;;;;5132688;27;20526;-78
2022/10/12 12:09:41;;;;;;;12.73;2.53;;;28.20;58.40;;;;;;5102142;27;20047;-77
2022/10/12 12:12:08;;;;;;;8.80;2.17;;;28.40;57.30;;;;;;5132527;27;20058;-81
2022/10/12 12:15:00;;;;;;;16.73;3.35;;;28.50;56.80;;;;;;5132177;27;20050;-80
2022/10/12 12:17:29;;;;;;;14.68;2.53;;;29.10;56.30;;;;;;5129903;27;20054;-79
2022/10/12 12:19:57;;;;;;;10.15;2.22;;;29.40;55.00;;;;;;5133405;27;20046;-81
2022/10/12 12:22:46;;;;;;;11.25;2.38;;;29.30;53.60;;;;;;5133362;27;20051;-80
2022/10/12 12:25:29;;;;;;;11.35;3.22;;;29.10;51.90;;;;;;5132113;27;20047;-82
2022/10/12 12:27:57;;;;;;;8.45;2.53;;;28.10;53.40;;;;;;5133159;27;20499;-80
2022/10/12 12:30:26;;;;;;;10.43;2.72;;;28.30;54.50;;;;;;5131900;27;20086;-81
2022/10/12 12:32:58;;;;;;;14.48;3.00;;;28.70;54.70;;;;;;5149377;27;20051;-81
2022/10/12 12:35:37;;;;;;;13.63;3.25;;;29.20;52.40;;;;;;5132155;27;20103;-81
2022/10/12 12:38:12;;;;;;;8.48;2.40;;;29.30;51.30;;;;;;5141564;27;20046;-78
2022/10/12 12:40:40;;;;;;;7.82;2.50;;;29.10;50.70;;;;;;5153395;27;20050;-80
2022/10/12 12:43:29;;;;;;;10.85;3.25;;;29.00;51.40;;;;;;5153576;27;20540;-80
2022/10/12 12:46:06;;;;;;;11.18;2.83;;;29.10;51.90;;;;;;5105572;27;20550;-80
2022/10/12 12:48:40;;;;;;;9.80;2.60;;;29.50;50.60;;;;;;5153505;27;20398;-80
2022/10/12 12:51:36;;;;;;;12.00;2.40;;;29.70;50.20;;;;;;5153356;27;20490;-79
2022/10/12 12:54:06;;;;;;;14.23;2.80;;;29.70;48.50;;;;;;5124551;27;20141;-82
2022/10/12 12:56:44;;;;;;;10.20;2.67;;;29.90;49.10;;;;;;5117378;27;20046;-81
2022/10/12 12:59:27;;;;;;;11.02;2.42;;;30.20;47.50;;;;;;5153320;27;20042;-81
2022/10/12 13:02:08;;;;;;;8.80;3.00;;;30.20;47.40;;;;;;5134796;27;20505;-81
2022/10/12 13:04:34;;;;;;;9.88;2.63;;;29.90;48.30;;;;;;5153118;27;20129;-82
2022/10/12 13:07:18;;;;;;;10.35;2.95;;;30.10;48.50;;;;;;5153515;27;20134;-79
2022/10/12 13:10:20;;;;;;;10.52;2.53;;;30.00;47.70;;;;;;5153969;27;20046;-78
2022/10/12 13:12:52;;;;;;;7.80;1.85;;;30.20;45.70;;;;;;5121408;27;20046;-79